Latest Weather Observations for Edithburgh

IDS60801

Issued at 9:31 am CDT Monday 22 December 2014 (issued every 30 minutes, with the page automatically refreshed every 10 minutes)

About weather observations | Map of weather stations | Latest weather observations for SA | Other Formats
Station Details ID: 022046 Name: EDITHBURGH Lat: -35.11 Lon: 137.74 Height: 6.0 m
Data from the previous 72 hours. | See also: Recent months at Edithburgh
Date/Time
CDT
Temp
°C
App
Temp
°C
Dew
Point
Rel
Hum
%
Delta-T
°C
Wind Press
QNH
hPa
Press
MSL
hPa
Rain
since 9 am
mm
Dir
 
Spd
km/h
Gust
km/h
Spd
kts
Gust
kts
22/09:30am 19.3 17.2 16.1 82 1.9 SSW 22 33 12 18 1008.6 1008.6 0.0
22/09:00am 19.1 17.4 16.3 84 1.7 S 20 28 11 15 1007.8 1007.8 0.0
22/08:30am 19.1 17.6 16.3 84 1.7 SSW 19 24 10 13 1008.3 1008.3 0.0
22/08:00am 19.3 17.4 16.6 84 1.6 S 22 30 12 16 1006.9 1006.9 0.0
22/07:30am 19.3 17.4 16.7 85 1.6 S 22 30 12 16 1006.4 1006.4 0.0
22/07:00am 19.2 17.9 16.7 85 1.5 S 19 24 10 13 1006.5 1006.5 0.0
22/06:30am 19.8 19.8 16.3 80 2.1 S 11 17 6 9 1006.8 1006.8 0.0
22/06:00am 19.5 17.7 16.0 80 2.1 SE 20 28 11 15 1005.9 1005.9 0.0
22/05:30am 18.8 16.4 16.3 85 1.5 SSE 24 32 13 17 1005.8 1005.8 0.0
22/05:00am 18.8 16.3 16.1 84 1.6 S 24 35 13 19 1006.5 1006.5 0.0
22/04:30am 18.7 16.7 16.4 86 1.4 SSE 22 30 12 16 1006.4 1006.4 0.0
22/04:00am 18.9 16.7 14.8 77 2.4 S 20 26 11 14 1007.6 1007.6 0.0
22/03:30am 18.9 16.8 15.2 79 2.2 SSE 20 26 11 14 1007.3 1007.3 0.0
22/03:00am 18.7 15.0 14.9 78 2.2 SSE 28 39 15 21 1006.5 1006.5 0.0
22/02:30am 18.5 15.7 15.3 81 1.9 SSE 24 32 13 17 1007.7 1007.7 0.0
22/02:00am 18.4 14.8 15.3 82 1.8 SSE 28 35 15 19 1008.5 1008.5 0.0
22/01:30am 18.1 13.8 15.4 84 1.6 SSE 32 43 17 23 1008.8 1008.8 0.0
22/01:00am 18.0 13.7 15.3 84 1.6 SSE 32 43 17 23 1009.4 1009.4 0.0
22/12:30am 18.1 13.5 15.0 82 1.8 SSE 33 43 18 23 1009.9 1009.9 0.0
22/12:00am 18.2 12.8 14.9 81 1.9 SSE 37 50 20 27 1009.7 1009.7 0.0
 
Date/Time
CDT
Temp
°C
App
Temp
°C
Dew
Point
Rel
Hum
%
Delta-T
°C
Wind Press
QNH
hPa
Press
MSL
hPa
Rain
since 9 am
mm
Dir
 
Spd
km/h
Gust
km/h
Spd
kts
Gust
kts
21/11:30pm 18.3 13.0 15.2 82 1.8 S 37 52 20 28 1010.0 1010.0 0.0
21/11:00pm 18.2 13.7 14.9 81 1.9 SSE 32 46 17 25 1010.3 1010.3 0.0
21/10:30pm 18.4 13.8 15.0 80 2.0 S 33 46 18 25 1011.0 1011.0 0.0
21/10:00pm 18.6 13.7 15.4 81 1.9 SSE 35 44 19 24 1011.1 1011.1 0.0
21/09:30pm 18.7 15.6 15.5 81 1.9 S 26 39 14 21 1011.5 1011.5 0.0
21/09:00pm 19.0 14.8 15.8 82 1.9 S 32 43 17 23 1010.6 1010.6 0.0
21/08:30pm 19.3 14.2 15.8 80 2.1 S 37 46 20 25 1009.9 1009.9 0.0
21/08:00pm 19.9 16.5 15.7 77 2.5 S 28 35 15 19 1009.7 1009.7 0.0
21/07:30pm 20.1 16.8 16.1 78 2.4 S 28 37 15 20 1008.7 1008.7 0.0
21/07:00pm 20.7 17.9 16.4 76 2.6 S 26 35 14 19 1008.3 1008.3 0.0
21/06:30pm 20.6 17.5 16.5 77 2.5 SSE 28 39 15 21 1008.3 1008.3 0.0
21/06:00pm 20.3 16.3 16.3 78 2.4 SSE 32 43 17 23 1008.1 1008.1 0.0
21/05:30pm 20.7 16.6 16.4 76 2.6 SSE 33 44 18 24 1008.4 1008.4 0.0
21/05:00pm 21.2 16.9 15.9 72 3.2 SSE 33 44 18 24 1008.6 1008.6 0.0
21/04:30pm 21.7 17.8 15.5 68 3.7 SSE 30 39 16 21 1009.2 1009.2 0.0
21/04:00pm 21.5 18.1 15.8 70 3.4 SSE 28 39 15 21 1009.5 1009.5 0.0
21/03:30pm 22.0 17.5 14.9 64 4.2 SSE 32 44 17 24 1009.9 1009.9 0.0
21/03:00pm 22.7 19.3 15.7 64 4.2 SSE 28 37 15 20 1010.3 1010.3 0.0
21/02:30pm 22.5 18.8 16.0 66 3.9 SSE 30 39 16 21 1010.8 1010.8 0.0
21/02:00pm 23.3 20.0 16.0 63 4.4 SSE 28 39 15 21 1011.3 1011.3 0.0
21/01:30pm 22.5 19.0 16.6 69 3.6 SSE 30 39 16 21 1011.6 1011.6 0.0
21/01:00pm 22.6 20.1 17.1 71 3.4 SSE 26 33 14 18 1011.8 1011.8 0.0
21/12:30pm 22.8 20.3 17.1 70 3.5 SSE 26 32 14 17 1011.9 1011.9 0.0
21/12:00pm 22.4 20.2 16.8 70 3.4 SSE 24 32 13 17 1012.1 1012.1 0.0
21/11:30am 24.7 21.4 15.0 54 5.8 SSE 26 33 14 18 1011.9 1011.9 0.0
21/11:00am 24.9 24.8 15.9 57 5.5 ESE 11 26 6 14 1011.8 1011.8 0.0
21/10:30am 24.3 24.1 15.7 58 5.2 NNE 11 15 6 8 1011.1 1011.1 0.0
21/10:00am 24.7 23.9 16.0 58 5.3 NE 15 20 8 11 1010.8 1010.8 0.0
21/09:30am 24.0 23.8 16.7 63 4.5 NNE 13 19 7 10 1011.0 1011.0 0.0
21/09:00am 23.7 23.1 15.6 60 4.9 NE 13 20 7 11 1010.9 1010.9 0.0
21/08:30am 23.2 21.8 15.5 62 4.6 NE 17 24 9 13 1010.8 1010.8 0.0
21/08:00am 22.6 21.8 16.2 67 3.9 NE 15 20 8 11 1010.6 1010.6 0.0
21/07:30am 22.1 21.6 16.0 68 3.7 ENE 13 19 7 10 1010.6 1010.6 0.0
21/07:00am 20.9 21.9 16.8 77 2.5 ENE 7 9 4 5 1010.5 1010.5 0.0
21/06:30am 18.7 19.3 15.8 83 1.7 ENE 7 9 4 5 1010.4 1010.4 0.0
21/06:00am 17.8 17.8 15.2 85 1.5 E 9 11 5 6 1010.3 1010.3 0.0
21/05:30am 18.1 17.6 14.8 81 1.9 E 11 13 6 7 1010.4 1010.4 0.0
21/05:00am 18.3 17.7 14.5 78 2.2 E 11 13 6 7 1010.5 1010.5 0.0
21/04:30am 18.7 17.6 14.2 75 2.6 E 13 15 7 8 1010.5 1010.5 0.0
21/04:00am 19.1 17.2 14.1 73 2.9 E 17 20 9 11 1010.6 1010.6 0.0
21/03:30am 19.1 17.1 13.9 72 3.0 ESE 17 22 9 12 1010.9 1010.9 0.0
21/03:00am 18.6 17.5 14.4 76 2.4 SE 13 17 7 9 1011.3 1011.3 0.0
21/02:30am 18.3 17.7 14.7 79 2.1 SE 11 15 6 8 1011.6 1011.6 0.0
21/02:00am 17.2 17.5 15.0 87 1.3 SE 7 11 4 6 1012.0 1012.0 0.0
21/01:30am 17.5 17.9 15.3 87 1.3 SE 7 9 4 5 1012.7 1012.7 0.0
21/01:00am 18.3 18.4 15.6 84 1.6 SE 9 13 5 7 1012.5 1012.5 0.0
21/12:30am 18.3 17.2 15.4 83 1.7 ESE 15 19 8 10 1012.5 1012.5 0.0
21/12:00am 18.5 17.1 15.6 83 1.7 SE 17 20 9 11 1012.8 1012.8 0.0
 
Date/Time
CDT
Temp
°C
App
Temp
°C
Dew
Point
Rel
Hum
%
Delta-T
°C
Wind Press
QNH
hPa
Press
MSL
hPa
Rain
since 9 am
mm
Dir
 
Spd
km/h
Gust
km/h
Spd
kts
Gust
kts
20/11:30pm 18.6 16.6 15.4 81 1.9 SE 20 26 11 14 1013.1 1013.1 0.0
20/11:00pm 18.5 15.9 14.9 79 2.1 SE 22 28 12 15 1013.2 1013.2 0.0
20/10:30pm 18.8 15.6 14.3 75 2.6 SE 24 32 13 17 1013.4 1013.4 0.0
20/10:00pm 19.1 16.8 14.6 75 2.6 SE 20 24 11 13 1013.7 1013.7 0.0
20/09:30pm 18.9 17.3 15.9 83 1.8 SSE 19 24 10 13 1013.8 1013.8 0.0
20/09:00pm 18.9 16.9 15.5 80 2.0 SSE 20 28 11 15 1014.0 1014.0 0.0
20/08:30pm 19.2 17.1 15.1 77 2.4 SSE 20 26 11 14 1014.2 1014.2 0.0
20/08:00pm 19.6 17.4 15.0 75 2.7 SSE 20 30 11 16 1014.2 1014.2 0.0
20/07:30pm 20.2 17.6 14.9 71 3.1 SSE 22 30 12 16 1014.0 1014.0 0.0
20/07:00pm 20.7 18.0 14.5 67 3.6 SSE 22 28 12 15 1013.8 1013.8 0.0
20/06:30pm 21.0 18.3 14.7 67 3.7 SSE 22 30 12 16 1013.6 1013.6 0.0
20/06:00pm 20.9 17.7 14.2 65 3.9 SSE 24 32 13 17 1013.6 1013.6 0.0
20/05:30pm 21.7 18.8 14.0 61 4.5 SSE 22 28 12 15 1014.0 1014.0 0.0
20/05:00pm 21.4 18.4 12.6 57 5.0 SSE 20 24 11 13 1014.7 1014.7 0.0
20/04:30pm 21.6 18.7 12.8 57 5.0 SSE 20 24 11 13 1014.8 1014.8 0.0
20/04:00pm 21.1 18.5 13.2 60 4.5 SSE 19 24 10 13 1015.0 1015.0 0.0
20/03:30pm 21.0 18.0 12.1 56 5.0 SSE 19 24 10 13 1015.3 1015.3 0.0
20/03:00pm 21.0 17.9 11.6 55 5.2 SSE 19 22 10 12 1015.9 1015.9 0.0
20/02:30pm 20.6 17.7 11.1 54 5.2 SSE 17 22 9 12 1016.4 1016.4 0.0
20/02:00pm 20.2 17.5 11.7 58 4.7 SE 17 22 9 12 1017.1 1017.1 0.0
20/01:30pm 19.9 18.0 11.8 59 4.5 SE 13 20 7 11 1017.7 1017.7 0.0
20/01:00pm 19.8 17.3 12.3 62 4.2 SE 17 22 9 12 1017.9 1017.9 0.0
20/12:30pm 20.1 18.3 12.2 60 4.4 SE 13 20 7 11 1018.3 1018.3 0.0
20/12:00pm 20.4 18.0 12.6 61 4.4 SE 17 22 9 12 1018.5 1018.5 0.0
20/11:30am 20.4 18.7 12.4 60 4.5 ESE 13 19 7 10 1018.9 1018.9 0.0
20/11:00am 19.9 18.2 12.4 62 4.2 ESE 13 22 7 12 1018.9 1018.9 0.0
20/10:30am 19.4 17.6 12.0 62 4.1 ESE 13 20 7 11 1019.0 1019.0 0.0
20/10:00am 19.3 17.4 11.9 62 4.1 ESE 13 19 7 10 1019.3 1019.3 0.0
20/09:30am 18.8 16.4 11.3 61 4.1 ESE 15 19 8 10 1019.4 1019.4 0.0
20/09:00am 18.4 15.4 10.8 61 4.1 ESE 17 24 9 13 1019.7 1019.7 0.0
20/08:30am 18.3 15.1 10.0 58 4.4 ESE 17 20 9 11 1019.6 1019.6 0.0
20/08:00am 18.1 15.0 10.2 60 4.2 ESE 17 20 9 11 1019.0 1019.0 0.0
20/07:30am 17.7 15.4 10.6 63 3.8 E 13 15 7 8 1019.1 1019.1 0.0
20/07:00am 16.9 15.4 10.7 67 3.3 E 9 15 5 8 1019.0 1019.0 0.0
20/06:30am 15.6 14.1 10.7 72 2.6 ESE 9 13 5 7 1018.9 1018.9 0.0
20/06:00am 15.2 13.7 10.4 73 2.5 ESE 9 15 5 8 1018.8 1018.8 0.0
20/05:30am 15.2 13.2 10.2 72 2.6 ESE 11 15 6 8 1018.6 1018.6 0.0
20/05:00am 15.5 13.6 10.4 71 2.7 ESE 11 17 6 9 1018.2 1018.2 0.0
20/04:30am 15.5 13.7 10.8 73 2.5 ESE 11 17 6 9 1018.2 1018.2 0.0
20/04:00am 15.4 13.6 10.9 74 2.4 ESE 11 13 6 7 1018.0 1018.0 0.0
20/03:30am 15.9 13.2 10.4 70 2.9 SE 15 20 8 11 1018.2 1018.2 0.0
20/03:00am 16.0 13.0 10.5 70 2.9 SE 17 22 9 12 1018.4 1018.4 0.0
20/02:30am 16.1 13.0 10.4 69 3.0 SE 17 22 9 12 1018.6 1018.6 0.0
20/02:00am 16.2 12.8 10.5 69 3.0 SE 19 24 10 13 1019.0 1019.0 0.0
20/01:30am 16.2 12.6 10.5 69 3.0 SE 20 26 11 14 1019.5 1019.5 0.0
20/01:00am 16.3 12.6 10.0 66 3.3 SSE 20 24 11 13 1020.0 1019.9 0.0
20/12:30am 16.3 12.5 9.8 65 3.4 SSE 20 24 11 13 1020.4 1020.3 0.0
20/12:00am 16.3 12.2 10.0 66 3.3 SSE 22 28 12 15 1020.4 1020.3 0.0
 
Date/Time
CDT
Temp
°C
App
Temp
°C
Dew
Point
Rel
Hum
%
Delta-T
°C
Wind Press
QNH
hPa
Press
MSL
hPa
Rain
since 9 am
mm
Dir
 
Spd
km/h
Gust
km/h
Spd
kts
Gust
kts
19/11:30pm 16.3 12.7 9.8 65 3.4 SSE 19 26 10 14 1020.8 1020.7 0.0
19/11:00pm 16.6 12.8 9.9 64 3.5 SSE 20 28 11 15 1020.9 1020.8 0.0
19/10:30pm 16.7 13.0 10.0 64 3.5 SSE 20 26 11 14 1021.1 1021.0 0.0
19/10:00pm 16.8 13.4 10.4 66 3.4 SSE 19 26 10 14 1021.0 1020.9 0.0
19/09:30pm 17.0 13.5 10.2 64 3.6 SSE 19 28 10 15 1020.9 1020.8 0.0
19/09:00pm 17.5 14.9 10.6 64 3.7 SSE 15 22 8 12 1020.8 1020.7 0.0
19/08:30pm 17.8 15.1 10.3 61 4.0 SSE 15 20 8 11 1020.7 1020.6 0.0
19/08:00pm 18.0 16.0 10.1 60 4.2 S 11 17 6 9 1020.8 1020.7 0.0
19/07:30pm 18.5 15.8 10.2 58 4.4 S 15 20 8 11 1020.7 1020.6 0.0
19/07:00pm 19.1 16.4 10.3 56 4.7 S 15 24 8 13 1020.5 1020.4 0.0
19/06:30pm 19.5 16.8 10.2 55 5.0 SSW 15 22 8 12 1020.5 1020.4 0.0
19/06:00pm 19.6 16.6 9.4 51 5.4 S 15 22 8 12 1020.2 1020.1 0.0
19/05:30pm 19.5 16.4 8.8 50 5.6 S 15 22 8 12 1020.2 1020.1 0.0
19/05:00pm 19.5 16.0 8.8 50 5.6 S 17 24 9 13 1020.3 1020.2 0.0
19/04:30pm 19.3 15.8 7.0 44 6.2 S 15 24 8 13 1020.5 1020.4 0.0
19/04:00pm 19.8 16.3 7.2 44 6.4 S 15 22 8 12 1020.6 1020.5 0.0
19/03:30pm 19.7 16.0 7.8 46 6.1 S 17 24 9 13 1020.7 1020.6 0.0
19/03:00pm 20.5 16.8 8.1 44 6.4 S 17 24 9 13 1020.7 1020.6 0.0
19/02:30pm 20.2 16.8 7.5 43 6.5 S 15 22 8 12 1020.9 1020.8 0.0
19/02:00pm 19.9 16.3 6.8 42 6.6 S 15 22 8 12 1021.0 1020.9 0.0
19/01:30pm 20.4 15.9 6.2 39 7.1 SSE 19 24 10 13 1021.0 1020.9 0.0
19/01:00pm 19.5 15.5 6.5 42 6.5 SSE 17 24 9 13 1021.1 1021.0 0.0
19/12:30pm 20.3 16.4 7.1 42 6.7 S 17 22 9 12 1021.4 1021.3 0.0
19/12:00pm 19.3 15.4 7.2 45 6.1 S 17 26 9 14 1021.5 1021.4 0.0
19/11:30am 19.1 15.0 6.4 43 6.3 SSW 17 22 9 12 1021.5 1021.4 0.0
19/11:00am 19.1 15.5 6.9 45 6.1 S 15 20 8 11 1021.4 1021.3 0.0
19/10:30am 18.8 15.8 7.5 47 5.7 S 13 19 7 10 1021.4 1021.3 0.0
19/10:00am 17.9 15.3 7.6 51 5.2 S 11 19 6 10 1021.3 1021.2 0.0

Other Formats:

Comma delimited format used in spreadsheet applications
http://www.bom.gov.au/fwo/IDS60801/IDS60801.94809.axf

JavaScript Object Notation format (JSON) in row-major order
http://www.bom.gov.au/fwo/IDS60801/IDS60801.94809.json